Time;durP1;ratioP1;P1;durP2;ratioP2;P2;SDS_P1;SDS_P2;PMS_P1;PMS_P2;Temp;Humidity;BMP_temperature;BMP_pressure;BME280_temperature;BME280_humidity;BME280_pressure;Samples;Min_cycle;Max_cycle;Signal;HPM_P1;HPM_P2
2023/03/09 00:00:48;;;;;;;4.90;4.60;;;8.70;99.90;;;;;;2085575;28;20212;-63
2023/03/09 00:01:54;;;;;;;1.23;1.10;;;8.80;99.90;;;;;;2081986;28;20211;-63
2023/03/09 00:03:00;;;;;;;3.17;2.97;;;8.70;99.90;;;;;;2085351;28;20719;-63
2023/03/09 00:04:05;;;;;;;4.45;4.15;;;8.70;99.90;;;;;;2085430;28;20276;-63
2023/03/09 00:05:12;;;;;;;4.63;4.32;;;8.70;99.90;;;;;;2082070;28;20192;-64
2023/03/09 00:06:17;;;;;;;1.95;1.67;;;8.70;99.90;;;;;;2076557;28;20181;-63
2023/03/09 00:07:23;;;;;;;28.10;26.35;;;8.60;99.90;;;;;;2077974;28;20268;-64
2023/03/09 00:08:29;;;;;;;9.15;8.65;;;8.60;99.90;;;;;;2085753;28;20177;-63
2023/03/09 00:09:35;;;;;;;7.45;7.07;;;8.70;99.90;;;;;;2088107;28;20188;-63
2023/03/09 00:10:41;;;;;;;8.50;8.00;;;8.60;99.90;;;;;;2086049;28;20193;-62
2023/03/09 00:11:48;;;;;;;4.00;1.70;;;8.60;99.90;;;;;;2087816;28;20204;-63
2023/03/09 00:12:54;;;;;;;4.35;4.15;;;8.60;99.90;;;;;;2084681;28;20344;-64
2023/03/09 00:13:59;;;;;;;1.58;1.50;;;8.50;99.90;;;;;;2081780;28;20184;-63
2023/03/09 00:15:05;;;;;;;4.95;4.55;;;8.50;99.90;;;;;;2085198;28;20672;-62
2023/03/09 00:16:22;;;;;;;3.28;3.00;;;8.50;99.90;;;;;;2076570;28;20204;-64
2023/03/09 00:17:28;;;;;;;28.98;27.48;;;8.40;99.90;;;;;;2069783;28;20189;-63
2023/03/09 00:18:34;;;;;;;10.93;10.32;;;8.50;99.90;;;;;;2074815;28;20192;-63
2023/03/09 00:19:39;;;;;;;9.63;9.13;;;8.40;99.90;;;;;;2085252;28;20219;-63
2023/03/09 00:20:46;;;;;;;10.05;9.55;;;8.30;99.90;;;;;;2085476;28;20201;-63
2023/03/09 00:21:56;;;;;;;2.85;2.70;;;8.30;99.90;;;;;;2081725;28;20659;-63
2023/03/09 00:23:08;;;;;;;4.15;3.95;;;8.30;99.90;;;;;;2085218;28;20181;-63
2023/03/09 00:24:15;;;;;;;17.52;16.58;;;8.40;99.90;;;;;;2081570;28;20243;-63
2023/03/09 00:25:21;;;;;;;1.33;0.95;;;8.40;99.90;;;;;;2076560;28;20186;-62
2023/03/09 00:26:27;;;;;;;2.88;2.67;;;8.40;99.90;;;;;;2078276;28;20290;-63
2023/03/09 00:27:33;;;;;;;18.67;17.63;;;8.20;99.90;;;;;;2085069;28;20185;-62
2023/03/09 00:28:40;;;;;;;19.05;17.88;;;8.10;99.90;;;;;;2085807;28;20218;-62
2023/03/09 00:29:46;;;;;;;9.73;9.23;;;8.00;99.90;;;;;;2081952;28;20176;-62
2023/03/09 00:30:52;;;;;;;4.45;4.20;;;7.90;99.90;;;;;;2085197;28;20177;-62
2023/03/09 00:31:58;;;;;;;1.63;1.27;;;7.80;99.90;;;;;;2085304;28;20197;-63
2023/03/09 00:33:04;;;;;;;1.75;1.55;;;7.70;99.90;;;;;;2082105;28;20211;-62
2023/03/09 00:34:05;;;;;;;3.43;3.33;;;7.60;99.90;;;;;;2084889;28;20275;-63
2023/03/09 00:35:09;;;;;;;1.42;1.35;;;7.50;99.90;;;;;;2076290;28;20234;-63
2023/03/09 00:36:16;;;;;;;3.20;2.47;;;7.50;99.90;;;;;;2073859;28;20188;-62
2023/03/09 00:37:22;;;;;;;0.77;0.77;;;7.40;99.90;;;;;;2084334;28;20307;-62
2023/03/09 00:38:28;;;;;;;1.48;1.38;;;7.50;99.90;;;;;;2084414;28;20195;-62
2023/03/09 00:39:33;;;;;;;2.70;2.58;;;7.50;99.90;;;;;;2079573;28;20189;-62
2023/03/09 00:40:39;;;;;;;5.43;5.13;;;7.50;99.90;;;;;;2085582;28;20169;-63
2023/03/09 00:41:45;;;;;;;8.77;8.32;;;7.40;99.90;;;;;;2085363;28;20203;-63
2023/03/09 00:42:51;;;;;;;5.40;5.13;;;7.40;99.90;;;;;;2084959;28;20865;-62
2023/03/09 00:43:58;;;;;;;12.75;11.95;;;7.40;99.90;;;;;;2085080;28;20185;-63
2023/03/09 00:45:05;;;;;;;23.67;22.38;;;7.40;99.90;;;;;;2076095;28;20692;-63
2023/03/09 00:46:09;;;;;;;2.45;2.35;;;7.40;99.90;;;;;;2076243;28;20191;-62
2023/03/09 00:47:15;;;;;;;1.38;1.27;;;7.50;99.90;;;;;;2084031;28;20186;-63
2023/03/09 00:48:21;;;;;;;3.03;1.20;;;7.50;99.90;;;;;;2081566;28;20206;-63
2023/03/09 00:49:27;;;;;;;3.33;1.15;;;7.50;99.90;;;;;;2084997;28;20187;-63
2023/03/09 00:50:32;;;;;;;1.00;0.90;;;7.50;99.90;;;;;;2084900;28;20192;-63
2023/03/09 00:51:38;;;;;;;5.75;4.05;;;7.60;99.90;;;;;;2085589;28;20188;-64
2023/03/09 00:52:44;;;;;;;20.85;19.45;;;7.60;99.90;;;;;;2076626;28;20176;-64
2023/03/09 00:53:50;;;;;;;6.78;6.15;;;7.40;99.90;;;;;;2078046;28;20196;-64
2023/03/09 00:54:56;;;;;;;3.72;0.93;;;7.30;99.90;;;;;;2076130;28;20220;-64
2023/03/09 00:56:15;;;;;;;4.53;2.42;;;7.10;99.90;;;;;;2077574;28;20272;-64
2023/03/09 00:57:22;;;;;;;5.00;1.85;;;7.10;99.90;;;;;;2082810;28;20270;-63
2023/03/09 00:58:28;;;;;;;5.57;4.78;;;7.10;99.90;;;;;;2085090;28;20259;-63
2023/03/09 00:59:33;;;;;;;3.97;3.65;;;7.30;99.90;;;;;;2076676;28;20177;-64
2023/03/09 01:00:39;;;;;;;3.97;1.20;;;7.50;99.90;;;;;;2078084;28;20180;-64
2023/03/09 01:01:44;;;;;;;29.73;27.95;;;7.50;99.90;;;;;;2085299;28;20680;-64
2023/03/09 01:02:50;;;;;;;10.77;10.15;;;7.60;99.90;;;;;;2085304;28;20565;-64
2023/03/09 01:03:56;;;;;;;4.10;1.10;;;7.60;99.90;;;;;;2085461;28;20192;-64
2023/03/09 01:05:02;;;;;;;3.58;1.30;;;7.50;99.90;;;;;;2084800;28;20184;-64
2023/03/09 01:06:05;;;;;;;1.50;1.35;;;7.60;99.90;;;;;;2085323;28;20187;-64
2023/03/09 01:07:09;;;;;;;10.57;9.95;;;7.60;99.90;;;;;;2081428;28;20617;-64
2023/03/09 01:08:15;;;;;;;4.18;3.80;;;7.70;99.90;;;;;;2084774;28;20194;-64
2023/03/09 01:09:20;;;;;;;4.03;1.55;;;7.70;99.90;;;;;;2084283;28;20194;-63
2023/03/09 01:10:26;;;;;;;11.27;10.48;;;7.80;99.90;;;;;;2081428;28;20665;-63
2023/03/09 01:11:31;;;;;;;4.63;4.20;;;7.80;99.90;;;;;;2084827;28;20727;-64
2023/03/09 01:12:37;;;;;;;3.75;2.22;;;7.80;99.90;;;;;;2084870;28;20197;-64
2023/03/09 01:13:44;;;;;;;6.43;5.93;;;7.90;99.90;;;;;;2081293;28;20180;-64
2023/03/09 01:14:53;;;;;;;4.97;4.68;;;7.80;99.90;;;;;;2085180;28;20265;-65
2023/03/09 01:15:56;;;;;;;23.42;21.90;;;7.70;99.90;;;;;;2084697;28;20185;-63
2023/03/09 01:17:02;;;;;;;9.93;9.32;;;7.70;99.90;;;;;;2081470;28;20172;-63
2023/03/09 01:18:04;;;;;;;12.02;11.23;;;7.80;99.90;;;;;;2084404;28;20201;-62
2023/03/09 01:19:09;;;;;;;4.35;4.05;;;7.80;99.90;;;;;;2084995;28;20235;-63
2023/03/09 01:20:15;;;;;;;12.05;11.20;;;7.80;99.90;;;;;;2084957;28;20232;-63
2023/03/09 01:21:20;;;;;;;3.22;2.45;;;7.90;99.90;;;;;;2085319;28;20193;-65
2023/03/09 01:22:26;;;;;;;9.75;9.10;;;8.10;99.90;;;;;;2076405;28;20193;-63
2023/03/09 01:23:32;;;;;;;2.53;2.17;;;8.00;99.90;;;;;;2077553;28;20173;-63
2023/03/09 01:24:37;;;;;;;3.80;3.50;;;8.10;99.90;;;;;;2084308;28;20290;-63
2023/03/09 01:25:42;;;;;;;7.75;7.22;;;8.10;99.90;;;;;;2084637;28;20226;-63
2023/03/09 01:26:48;;;;;;;5.10;4.70;;;8.10;99.90;;;;;;2084718;28;20234;-63
2023/03/09 01:27:53;;;;;;;3.83;3.22;;;8.00;99.90;;;;;;2081327;28;20187;-63
2023/03/09 01:28:58;;;;;;;3.25;2.20;;;8.00;99.90;;;;;;2084733;28;20237;-63
2023/03/09 01:30:05;;;;;;;6.70;6.18;;;8.00;99.90;;;;;;2084739;28;20566;-63
2023/03/09 01:31:11;;;;;;;3.40;1.40;;;8.00;99.90;;;;;;2081446;28;20184;-63
2023/03/09 01:32:17;;;;;;;7.95;7.25;;;8.00;99.90;;;;;;2076052;28;20207;-63
2023/03/09 01:33:22;;;;;;;4.47;2.55;;;8.00;99.90;;;;;;2077253;28;20188;-63
2023/03/09 01:34:28;;;;;;;4.28;3.85;;;8.00;99.90;;;;;;2078864;28;20212;-62
2023/03/09 01:35:33;;;;;;;12.50;11.85;;;8.00;99.90;;;;;;2085182;28;20569;-64
2023/03/09 01:36:40;;;;;;;12.27;11.38;;;8.00;99.90;;;;;;2072533;28;20186;-63
2023/03/09 01:37:45;;;;;;;16.25;15.25;;;8.00;99.90;;;;;;2073995;28;20188;-63
2023/03/09 01:38:50;;;;;;;24.63;23.23;;;8.00;99.90;;;;;;2075803;28;20188;-63
2023/03/09 01:39:56;;;;;;;3.17;2.95;;;8.00;99.90;;;;;;2068545;28;20190;-64
2023/03/09 01:41:01;;;;;;;9.38;8.80;;;8.00;99.90;;;;;;2073766;28;20189;-63
2023/03/09 01:42:04;;;;;;;4.03;3.72;;;7.90;99.90;;;;;;2084505;28;20550;-63
2023/03/09 01:43:26;;;;;;;6.63;3.60;;;7.90;99.90;;;;;;2084581;28;20552;-63
2023/03/09 01:44:29;;;;;;;8.07;3.20;;;7.90;99.90;;;;;;2082673;28;20275;-63
2023/03/09 01:45:34;;;;;;;2.72;1.73;;;7.70;99.90;;;;;;2084686;28;20327;-64
2023/03/09 01:46:56;;;;;;;4.38;3.97;;;7.80;99.90;;;;;;2081175;28;20188;-63
2023/03/09 01:47:59;;;;;;;3.63;2.45;;;7.70;99.90;;;;;;2084515;28;20192;-64
2023/03/09 01:49:24;;;;;;;2.83;2.63;;;7.60;99.90;;;;;;2072673;28;20677;-63
2023/03/09 01:50:34;;;;;;;2.88;2.63;;;7.50;99.90;;;;;;2069050;28;20728;-63
2023/03/09 01:51:49;;;;;;;2.80;1.77;;;7.50;99.90;;;;;;2075742;28;20240;-63
2023/03/09 01:52:58;;;;;;;4.00;3.70;;;7.50;99.90;;;;;;2076208;28;20208;-63
2023/03/09 01:54:10;;;;;;;6.68;6.10;;;7.40;99.90;;;;;;2075819;28;20196;-63
2023/03/09 01:55:24;;;;;;;7.30;6.85;;;7.40;99.90;;;;;;2075727;28;20215;-63
2023/03/09 01:56:31;;;;;;;4.32;3.63;;;7.30;99.90;;;;;;2072203;28;20208;-64
2023/03/09 01:57:39;;;;;;;3.17;2.33;;;7.30;99.90;;;;;;2068832;28;20192;-63
2023/03/09 01:58:48;;;;;;;5.18;2.50;;;7.30;99.90;;;;;;2069461;28;20193;-63
2023/03/09 02:00:05;;;;;;;4.13;1.92;;;7.20;99.90;;;;;;2074773;28;20244;-62
2023/03/09 02:01:10;;;;;;;16.40;15.40;;;7.20;99.90;;;;;;2076084;28;20189;-63
2023/03/09 02:02:17;;;;;;;5.55;2.72;;;7.20;99.90;;;;;;2076337;28;20239;-64
2023/03/09 02:03:29;;;;;;;2.03;1.00;;;7.10;99.90;;;;;;2077727;28;20645;-63
2023/03/09 02:04:48;;;;;;;1.33;1.23;;;7.10;99.90;;;;;;2075834;28;20306;-64
2023/03/09 02:06:10;;;;;;;5.32;3.72;;;7.10;99.90;;;;;;2066905;28;20203;-64
2023/03/09 02:07:20;;;;;;;3.05;2.72;;;7.00;99.90;;;;;;2070503;28;20264;-64
2023/03/09 02:08:27;;;;;;;2.20;1.05;;;7.10;99.90;;;;;;2078018;28;20264;-64
2023/03/09 02:09:44;;;;;;;3.50;1.05;;;7.00;99.90;;;;;;2087356;28;20205;-63
2023/03/09 02:10:58;;;;;;;4.90;1.35;;;7.10;99.90;;;;;;2079035;28;20180;-63
2023/03/09 02:12:04;;;;;;;5.63;1.13;;;7.10;99.90;;;;;;2074026;28;20255;-64
2023/03/09 02:13:16;;;;;;;2.85;1.08;;;7.10;99.90;;;;;;2077612;28;20234;-64
2023/03/09 02:14:23;;;;;;;3.30;1.10;;;7.10;99.90;;;;;;2076362;28;20285;-63
2023/03/09 02:15:28;;;;;;;2.25;1.10;;;7.10;99.90;;;;;;2077797;28;20236;-63
2023/03/09 02:16:34;;;;;;;9.30;8.70;;;7.20;99.90;;;;;;2085005;28;20188;-64
2023/03/09 02:17:40;;;;;;;2.55;2.35;;;7.10;99.90;;;;;;2084745;28;20263;-64
2023/03/09 02:18:46;;;;;;;3.58;1.30;;;7.20;99.90;;;;;;2075939;28;20188;-63
2023/03/09 02:20:11;;;;;;;4.65;2.80;;;7.20;99.90;;;;;;2075992;28;20877;-64
2023/03/09 02:21:44;;;;;;;4.32;3.92;;;7.20;99.90;;;;;;2071461;28;20280;-64
2023/03/09 02:22:51;;;;;;;3.08;0.80;;;7.20;99.90;;;;;;2074582;28;20701;-63
2023/03/09 02:24:11;;;;;;;3.70;1.30;;;7.20;99.90;;;;;;2082648;28;20231;-63
2023/03/09 02:25:24;;;;;;;3.13;2.78;;;7.20;99.90;;;;;;2086800;28;20259;-63
2023/03/09 02:26:41;;;;;;;4.60;1.85;;;7.20;99.90;;;;;;2077941;28;20218;-63
2023/03/09 02:27:47;;;;;;;2.13;1.83;;;7.20;99.90;;;;;;2069740;28;20339;-63
2023/03/09 02:28:53;;;;;;;3.33;1.30;;;7.20;99.90;;;;;;2077958;28;20219;-64
2023/03/09 02:29:59;;;;;;;2.88;1.30;;;7.20;99.90;;;;;;2086762;28;20267;-64
2023/03/09 02:31:06;;;;;;;3.67;1.30;;;7.20;99.90;;;;;;2077794;28;20196;-63
2023/03/09 02:32:10;;;;;;;7.25;4.20;;;7.20;99.90;;;;;;2067089;28;20211;-63
2023/03/09 02:33:27;;;;;;;4.97;2.22;;;7.20;99.90;;;;;;2077053;28;20194;-64
2023/03/09 02:34:33;;;;;;;4.10;3.80;;;7.20;99.90;;;;;;2083648;28;20262;-64
2023/03/09 02:35:39;;;;;;;1.92;1.83;;;7.20;99.90;;;;;;2086286;28;20257;-64
2023/03/09 02:36:45;;;;;;;1.67;1.50;;;7.20;99.90;;;;;;2081563;28;20183;-63
2023/03/09 02:37:50;;;;;;;2.53;1.00;;;7.20;99.90;;;;;;2082647;28;20631;-64
2023/03/09 02:39:06;;;;;;;2.47;1.88;;;7.30;99.90;;;;;;2082704;28;20223;-63
2023/03/09 02:40:18;;;;;;;8.18;7.50;;;7.30;99.90;;;;;;2085924;28;20204;-64
2023/03/09 02:41:23;;;;;;;2.55;2.35;;;7.20;99.90;;;;;;2075165;28;21090;-63
2023/03/09 02:42:29;;;;;;;2.90;0.90;;;7.20;99.90;;;;;;2070767;28;20193;-63
2023/03/09 02:43:49;;;;;;;3.08;2.78;;;7.20;99.90;;;;;;2079323;28;20181;-63
2023/03/09 02:44:56;;;;;;;0.90;0.70;;;7.20;99.90;;;;;;2083396;28;20612;-64
2023/03/09 02:46:01;;;;;;;19.75;18.50;;;7.20;99.90;;;;;;2077146;28;20181;-64
2023/03/09 02:47:14;;;;;;;3.85;3.55;;;7.20;99.90;;;;;;2066356;28;20576;-64
2023/03/09 02:48:19;;;;;;;11.38;10.80;;;7.20;99.90;;;;;;2071080;28;20193;-64
2023/03/09 02:49:24;;;;;;;7.35;6.88;;;7.20;99.90;;;;;;2079015;28;20183;-64
2023/03/09 02:50:30;;;;;;;2.65;2.45;;;7.10;99.90;;;;;;2077817;28;20185;-63
2023/03/09 02:51:35;;;;;;;2.42;2.28;;;7.10;99.90;;;;;;2073983;28;20257;-64
2023/03/09 02:52:40;;;;;;;19.40;18.35;;;7.10;99.90;;;;;;2085859;28;20184;-64
2023/03/09 02:53:46;;;;;;;4.03;3.83;;;7.10;99.90;;;;;;2085889;28;20271;-64
2023/03/09 02:54:51;;;;;;;5.05;4.75;;;7.20;99.90;;;;;;2086474;28;20215;-63
2023/03/09 02:55:57;;;;;;;4.20;3.45;;;7.10;99.90;;;;;;2086516;28;20192;-64
2023/03/09 02:57:03;;;;;;;7.88;7.47;;;7.20;99.90;;;;;;2082261;28;20179;-64
2023/03/09 02:58:04;;;;;;;2.35;0.98;;;7.20;99.90;;;;;;2085381;28;20195;-63
2023/03/09 02:59:09;;;;;;;4.03;3.72;;;7.20;99.90;;;;;;2085605;28;20672;-64
2023/03/09 03:00:16;;;;;;;1.85;1.70;;;7.20;99.90;;;;;;2082464;28;20739;-64
2023/03/09 03:01:21;;;;;;;2.75;2.00;;;7.20;99.90;;;;;;2085731;28;20192;-63
2023/03/09 03:02:26;;;;;;;12.43;11.73;;;7.10;99.90;;;;;;2081911;28;20202;-64
2023/03/09 03:03:32;;;;;;;8.25;7.78;;;7.10;99.90;;;;;;2085681;28;20194;-64
2023/03/09 03:04:37;;;;;;;3.38;1.45;;;7.10;99.90;;;;;;2085612;28;20183;-64
2023/03/09 03:05:42;;;;;;;9.90;9.20;;;7.10;99.90;;;;;;2086643;28;20715;-64
2023/03/09 03:06:48;;;;;;;1.58;1.48;;;7.10;99.90;;;;;;2086453;28;21038;-64
2023/03/09 03:07:53;;;;;;;2.28;1.83;;;7.10;99.90;;;;;;2073113;28;20634;-64
2023/03/09 03:08:59;;;;;;;2.15;1.95;;;7.10;99.90;;;;;;2077247;28;20298;-64
2023/03/09 03:10:05;;;;;;;3.75;3.45;;;7.10;99.90;;;;;;2087608;28;20192;-63
2023/03/09 03:11:09;;;;;;;7.85;7.45;;;7.10;99.90;;;;;;2085609;28;20562;-63
2023/03/09 03:12:15;;;;;;;14.75;14.00;;;7.00;99.90;;;;;;2085789;28;20230;-65
2023/03/09 03:13:20;;;;;;;1.83;1.73;;;7.00;99.90;;;;;;2082207;28;20178;-63
2023/03/09 03:14:26;;;;;;;4.68;4.30;;;7.00;99.90;;;;;;2085976;28;20222;-64
2023/03/09 03:15:31;;;;;;;4.30;4.03;;;7.00;99.90;;;;;;2086009;28;20247;-64
2023/03/09 03:16:37;;;;;;;3.35;3.20;;;7.00;99.90;;;;;;2086269;28;20276;-64
2023/03/09 03:17:42;;;;;;;7.60;7.15;;;6.90;99.90;;;;;;2086128;28;20671;-63
2023/03/09 03:18:48;;;;;;;6.05;5.55;;;7.00;99.90;;;;;;2082224;28;20270;-64
2023/03/09 03:19:54;;;;;;;25.60;24.02;;;6.90;99.90;;;;;;2085528;28;20185;-63
2023/03/09 03:20:59;;;;;;;4.95;4.70;;;6.90;99.90;;;;;;2086074;28;20185;-64
2023/03/09 03:22:05;;;;;;;1.58;1.48;;;6.90;99.90;;;;;;2086504;28;20700;-64
2023/03/09 03:23:09;;;;;;;1.30;1.00;;;6.90;99.90;;;;;;2086230;28;20674;-64
2023/03/09 03:24:16;;;;;;;6.72;6.35;;;6.90;99.90;;;;;;2082481;28;20289;-64
2023/03/09 03:25:24;;;;;;;4.35;3.88;;;6.80;99.90;;;;;;2085286;28;20758;-64
2023/03/09 03:26:28;;;;;;;2.50;2.05;;;6.80;99.90;;;;;;2088065;28;20205;-64
2023/03/09 03:27:34;;;;;;;0.70;0.70;;;6.90;99.90;;;;;;2086098;28;20192;-63
2023/03/09 03:28:39;;;;;;;6.75;6.38;;;6.80;99.90;;;;;;2085698;28;20213;-64
2023/03/09 03:29:45;;;;;;;2.03;0.95;;;6.80;99.90;;;;;;2086100;28;20745;-63
2023/03/09 03:30:52;;;;;;;1.85;1.67;;;6.80;99.90;;;;;;2086334;28;20603;-64
2023/03/09 03:31:57;;;;;;;3.58;3.22;;;6.80;99.90;;;;;;2082208;28;20243;-64
2023/03/09 03:33:03;;;;;;;4.93;4.70;;;6.70;99.90;;;;;;2084643;28;20173;-63
2023/03/09 03:34:04;;;;;;;10.30;9.55;;;6.70;99.90;;;;;;2085627;28;20202;-64
2023/03/09 03:35:09;;;;;;;3.15;1.92;;;6.70;99.90;;;;;;2069300;28;20194;-64
2023/03/09 03:36:14;;;;;;;2.90;2.80;;;6.80;99.90;;;;;;2071725;28;20630;-64
2023/03/09 03:37:20;;;;;;;2.35;1.75;;;6.70;99.90;;;;;;2081720;28;20188;-64
2023/03/09 03:38:25;;;;;;;25.70;23.92;;;6.70;99.90;;;;;;2084810;28;20188;-64
2023/03/09 03:39:31;;;;;;;1.00;0.90;;;6.70;99.90;;;;;;2087446;28;20183;-63
2023/03/09 03:40:36;;;;;;;1.73;1.70;;;6.70;99.90;;;;;;2085141;28;20176;-64
2023/03/09 03:41:42;;;;;;;1.33;0.70;;;6.60;99.90;;;;;;2085367;28;20174;-63
2023/03/09 03:42:47;;;;;;;3.10;2.78;;;6.60;99.90;;;;;;2080690;28;20181;-64
2023/03/09 03:43:52;;;;;;;2.45;1.58;;;6.60;99.90;;;;;;2078009;28;20243;-63
2023/03/09 03:44:58;;;;;;;4.72;4.43;;;6.60;99.90;;;;;;2078248;28;20196;-64
2023/03/09 03:46:03;;;;;;;5.45;5.03;;;6.60;99.90;;;;;;2085302;28;20243;-64
2023/03/09 03:47:09;;;;;;;2.25;1.10;;;6.50;99.90;;;;;;2085193;28;20215;-64
2023/03/09 03:48:14;;;;;;;3.97;3.78;;;6.50;99.90;;;;;;2081826;28;20275;-64
2023/03/09 03:49:21;;;;;;;2.25;1.80;;;6.50;99.90;;;;;;2085207;28;20189;-64
2023/03/09 03:50:27;;;;;;;2.88;0.70;;;6.50;99.90;;;;;;2081758;28;20219;-64
2023/03/09 03:51:32;;;;;;;4.07;1.15;;;6.40;99.90;;;;;;2085229;28;20188;-64
2023/03/09 03:52:38;;;;;;;1.40;0.50;;;6.40;99.90;;;;;;2085567;28;20224;-64
2023/03/09 03:53:44;;;;;;;2.42;1.35;;;6.30;99.90;;;;;;2086236;28;20708;-64
2023/03/09 03:54:50;;;;;;;0.75;0.50;;;6.40;99.90;;;;;;2085874;28;20293;-64
2023/03/09 03:55:56;;;;;;;2.10;2.00;;;6.30;99.90;;;;;;2082252;28;20242;-64
2023/03/09 03:57:03;;;;;;;1.60;1.50;;;6.30;99.90;;;;;;2085391;28;20181;-64
2023/03/09 03:58:04;;;;;;;4.10;0.73;;;6.30;99.90;;;;;;2085421;28;20203;-63
2023/03/09 03:59:09;;;;;;;1.80;0.50;;;6.30;99.90;;;;;;2085965;28;20196;-64
2023/03/09 04:00:17;;;;;;;2.30;0.95;;;6.40;99.90;;;;;;2086016;28;20595;-64
2023/03/09 04:01:20;;;;;;;1.00;0.65;;;6.40;99.90;;;;;;2081845;28;20187;-63
2023/03/09 04:02:25;;;;;;;1.92;0.60;;;6.40;99.90;;;;;;2076406;28;20200;-64
2023/03/09 04:03:31;;;;;;;2.25;0.52;;;6.50;99.90;;;;;;2077425;28;20193;-64
2023/03/09 04:04:36;;;;;;;0.95;0.50;;;6.50;99.90;;;;;;2085993;28;20193;-64
2023/03/09 04:05:42;;;;;;;3.20;0.70;;;6.50;99.90;;;;;;2085934;28;20196;-64
2023/03/09 04:06:47;;;;;;;1.58;0.80;;;6.50;99.90;;;;;;2082083;28;20187;-64
2023/03/09 04:07:53;;;;;;;18.73;17.83;;;6.50;99.90;;;;;;2075947;28;20205;-69
2023/03/09 04:08:59;;;;;;;1.13;0.98;;;6.40;99.90;;;;;;2078382;28;20197;-64
2023/03/09 04:10:05;;;;;;;2.72;1.27;;;6.40;99.90;;;;;;2091280;28;20251;-63
2023/03/09 04:11:09;;;;;;;1.63;0.82;;;6.30;99.90;;;;;;2091139;28;20591;-63
2023/03/09 04:12:14;;;;;;;2.92;0.80;;;6.40;99.90;;;;;;2083734;28;20241;-64
2023/03/09 04:13:21;;;;;;;1.00;1.00;;;6.30;99.90;;;;;;2085739;28;20231;-63
2023/03/09 04:14:25;;;;;;;5.05;4.82;;;6.40;99.90;;;;;;2085841;28;20564;-64
2023/03/09 04:15:33;;;;;;;1.70;0.65;;;6.30;99.90;;;;;;2085926;28;20204;-64
2023/03/09 04:16:38;;;;;;;2.55;0.93;;;6.30;99.90;;;;;;2085897;28;20199;-63
2023/03/09 04:17:42;;;;;;;2.85;2.75;;;6.40;99.90;;;;;;2076007;28;20298;-63
2023/03/09 04:18:47;;;;;;;3.95;3.72;;;6.30;99.90;;;;;;2077107;28;20190;-64
2023/03/09 04:19:52;;;;;;;1.77;0.70;;;6.40;99.90;;;;;;2081438;28;20279;-63
2023/03/09 04:20:58;;;;;;;1.50;1.17;;;6.40;99.90;;;;;;2085166;28;20184;-64
2023/03/09 04:22:03;;;;;;;2.78;0.80;;;6.40;99.90;;;;;;2076375;28;20213;-64
2023/03/09 04:23:10;;;;;;;0.55;0.55;;;6.40;99.90;;;;;;2078560;28;20178;-64
2023/03/09 04:24:14;;;;;;;2.35;1.35;;;6.40;99.90;;;;;;2077040;28;20585;-63
2023/03/09 04:25:19;;;;;;;3.42;1.10;;;6.40;99.90;;;;;;2074052;28;20181;-66
2023/03/09 04:26:20;;;;;;;6.13;5.72;;;6.40;99.90;;;;;;2076160;28;20195;-64
2023/03/09 04:27:26;;;;;;;4.03;3.72;;;6.40;99.90;;;;;;2076872;28;20193;-64
2023/03/09 04:28:31;;;;;;;3.53;1.27;;;6.40;99.90;;;;;;2081613;28;20180;-64
2023/03/09 04:29:37;;;;;;;1.48;0.82;;;6.40;99.90;;;;;;2084921;28;20182;-63
2023/03/09 04:30:42;;;;;;;3.47;2.80;;;6.40;99.90;;;;;;2085581;28;20195;-63
2023/03/09 04:31:48;;;;;;;1.42;1.10;;;6.40;99.90;;;;;;2085687;28;20721;-64
2023/03/09 04:32:53;;;;;;;6.90;5.80;;;6.40;99.90;;;;;;2085923;28;20188;-64
2023/03/09 04:33:58;;;;;;;5.78;5.30;;;6.30;99.90;;;;;;2082153;28;20180;-64
2023/03/09 04:35:06;;;;;;;2.05;0.95;;;6.30;99.90;;;;;;2084732;28;20200;-64
2023/03/09 04:36:10;;;;;;;2.75;2.55;;;6.30;99.90;;;;;;2076922;28;20689;-64
2023/03/09 04:37:15;;;;;;;6.13;5.75;;;6.30;99.90;;;;;;2077518;28;20752;-64
2023/03/09 04:38:20;;;;;;;4.50;2.92;;;6.30;99.90;;;;;;2076566;28;20185;-64
2023/03/09 04:39:26;;;;;;;2.60;2.03;;;6.20;99.90;;;;;;2077226;28;20185;-64
2023/03/09 04:40:32;;;;;;;2.97;2.70;;;6.30;99.90;;;;;;2075899;28;20181;-64
2023/03/09 04:41:37;;;;;;;2.55;2.35;;;6.20;99.90;;;;;;2074209;28;20276;-64
2023/03/09 04:42:43;;;;;;;3.08;1.65;;;6.30;99.90;;;;;;2084678;28;20177;-64
2023/03/09 04:43:48;;;;;;;2.25;2.03;;;6.20;99.90;;;;;;2076353;28;20557;-64
2023/03/09 04:44:54;;;;;;;3.47;1.15;;;6.20;99.90;;;;;;2078247;28;20189;-64
2023/03/09 04:45:59;;;;;;;4.05;1.40;;;6.20;99.90;;;;;;2085715;28;20187;-64
2023/03/09 04:47:06;;;;;;;2.47;1.67;;;6.30;99.90;;;;;;2081588;28;20242;-64
2023/03/09 04:48:09;;;;;;;15.80;14.90;;;6.20;99.90;;;;;;2084639;28;20606;-64
2023/03/09 04:49:15;;;;;;;4.45;2.13;;;6.20;99.90;;;;;;2076191;28;20295;-64
2023/03/09 04:50:20;;;;;;;2.13;1.92;;;6.20;99.90;;;;;;2078152;28;20181;-63
2023/03/09 04:51:26;;;;;;;4.05;2.38;;;6.20;99.90;;;;;;2085500;28;20194;-64
2023/03/09 04:52:31;;;;;;;4.03;1.00;;;6.20;99.90;;;;;;2081595;28;20218;-64
2023/03/09 04:53:37;;;;;;;4.47;1.58;;;6.20;99.90;;;;;;2084753;28;20212;-64
2023/03/09 04:54:42;;;;;;;4.97;1.70;;;6.20;99.90;;;;;;2085328;28;20232;-62
2023/03/09 04:55:47;;;;;;;10.30;9.57;;;6.20;99.90;;;;;;2085412;28;20184;-64
2023/03/09 04:56:53;;;;;;;2.15;1.25;;;6.20;99.90;;;;;;2085449;28;20173;-63
2023/03/09 04:57:58;;;;;;;3.00;2.40;;;6.10;99.90;;;;;;2081638;28;20180;-63
2023/03/09 04:59:04;;;;;;;4.00;1.02;;;6.20;99.90;;;;;;2084913;28;20268;-63
2023/03/09 05:00:11;;;;;;;3.72;1.25;;;6.20;99.90;;;;;;2072228;28;20180;-63
2023/03/09 05:01:16;;;;;;;12.95;9.05;;;6.10;99.90;;;;;;2076876;28;20728;-64
2023/03/09 05:02:22;;;;;;;4.22;1.05;;;6.10;99.90;;;;;;2084971;28;20763;-64
2023/03/09 05:03:29;;;;;;;5.82;1.10;;;6.10;99.90;;;;;;2085492;28;20641;-64
2023/03/09 05:04:33;;;;;;;6.75;1.55;;;6.20;99.90;;;;;;2085684;28;20204;-63
2023/03/09 05:05:38;;;;;;;6.35;1.85;;;6.20;99.90;;;;;;2085159;28;20184;-64
2023/03/09 05:06:44;;;;;;;6.53;2.20;;;6.20;99.90;;;;;;2085692;28;20192;-64
2023/03/09 05:07:50;;;;;;;6.07;5.05;;;6.20;99.90;;;;;;2084607;28;20188;-63
2023/03/09 05:08:58;;;;;;;4.78;3.58;;;6.10;99.90;;;;;;2084703;28;20563;-64
2023/03/09 05:10:01;;;;;;;4.68;4.18;;;6.10;99.90;;;;;;2084635;28;20196;-64
2023/03/09 05:11:05;;;;;;;3.53;1.30;;;6.10;99.90;;;;;;2078880;28;20180;-64
2023/03/09 05:12:09;;;;;;;5.43;2.92;;;6.10;99.90;;;;;;2076499;28;20210;-64
2023/03/09 05:13:15;;;;;;;4.93;4.50;;;6.10;99.90;;;;;;2077362;28;20180;-64
2023/03/09 05:14:21;;;;;;;3.55;1.38;;;6.10;99.90;;;;;;2084489;28;20176;-64
2023/03/09 05:15:26;;;;;;;2.92;2.63;;;6.10;99.90;;;;;;2075799;28;20205;-64
2023/03/09 05:16:31;;;;;;;5.72;2.03;;;6.00;99.90;;;;;;2073906;28;20185;-64
2023/03/09 05:17:37;;;;;;;5.55;1.83;;;6.00;99.90;;;;;;2084553;28;20176;-64
2023/03/09 05:18:42;;;;;;;3.83;2.75;;;6.00;99.90;;;;;;2076416;28;20174;-64
2023/03/09 05:19:48;;;;;;;2.70;1.20;;;6.00;99.90;;;;;;2077887;28;20188;-64
2023/03/09 05:20:53;;;;;;;5.75;4.50;;;6.00;99.90;;;;;;2085253;28;20180;-64
2023/03/09 05:21:59;;;;;;;7.13;4.32;;;6.00;99.90;;;;;;2084644;28;20274;-63
2023/03/09 05:23:05;;;;;;;3.53;2.72;;;6.10;99.90;;;;;;2084592;28;20563;-64
2023/03/09 05:24:10;;;;;;;4.22;1.15;;;6.10;99.90;;;;;;2072222;28;20193;-64
2023/03/09 05:25:15;;;;;;;6.65;4.65;;;6.10;99.90;;;;;;2078359;28;20189;-64
2023/03/09 05:26:20;;;;;;;7.43;6.15;;;6.10;99.90;;;;;;2079276;28;20184;-64
2023/03/09 05:27:26;;;;;;;5.35;1.52;;;6.00;99.90;;;;;;2082430;28;20177;-64
2023/03/09 05:28:31;;;;;;;11.45;8.43;;;6.00;99.90;;;;;;2087457;28;20664;-65
2023/03/09 05:29:37;;;;;;;6.15;1.20;;;6.00;99.90;;;;;;2081978;28;20670;-64
2023/03/09 05:30:42;;;;;;;6.88;1.50;;;6.00;99.90;;;;;;2073114;28;20181;-65
2023/03/09 05:31:47;;;;;;;7.18;2.40;;;6.00;99.90;;;;;;2077192;28;20209;-64
2023/03/09 05:32:53;;;;;;;6.53;2.28;;;6.00;99.90;;;;;;2085218;28;20184;-64
2023/03/09 05:33:58;;;;;;;6.50;1.20;;;6.10;99.90;;;;;;2081110;28;20184;-64
2023/03/09 05:35:05;;;;;;;4.63;2.75;;;6.10;99.90;;;;;;2084470;28;20216;-64
2023/03/09 05:36:25;;;;;;;4.55;1.60;;;6.10;99.90;;;;;;2084707;28;20210;-64
2023/03/09 05:37:33;;;;;;;8.13;4.78;;;6.10;99.90;;;;;;2074453;28;20177;-64
2023/03/09 05:38:36;;;;;;;5.20;4.07;;;6.00;99.90;;;;;;2076970;28;20685;-64
2023/03/09 05:39:41;;;;;;;5.10;1.02;;;6.00;99.90;;;;;;2077635;28;20559;-64
2023/03/09 05:40:46;;;;;;;3.45;1.80;;;6.00;99.90;;;;;;2085220;28;20284;-64
2023/03/09 05:41:52;;;;;;;2.88;1.27;;;6.00;99.90;;;;;;2080654;28;20199;-64
2023/03/09 05:42:57;;;;;;;4.88;3.20;;;6.10;99.90;;;;;;2084733;28;20188;-63
2023/03/09 05:44:03;;;;;;;4.63;1.10;;;6.00;99.90;;;;;;2081317;28;20181;-63
2023/03/09 05:45:04;;;;;;;6.20;1.40;;;6.00;99.90;;;;;;2080717;28;20244;-64
2023/03/09 05:46:12;;;;;;;5.88;1.50;;;6.00;99.90;;;;;;2085339;28;20692;-64
2023/03/09 05:47:15;;;;;;;7.78;7.13;;;6.00;99.90;;;;;;2085269;28;20724;-63
2023/03/09 05:48:21;;;;;;;3.88;1.70;;;6.00;99.90;;;;;;2085087;28;20571;-63
2023/03/09 05:49:27;;;;;;;3.55;1.77;;;6.00;99.90;;;;;;2085118;28;20188;-63
2023/03/09 05:50:33;;;;;;;3.00;2.00;;;6.00;99.90;;;;;;2086053;28;20188;-64